createdAt,value
2022-08-09T00:01:52.795Z,19.13
2022-08-09T00:05:03.725Z,19.09
2022-08-09T00:08:32.692Z,19.13
2022-08-09T00:12:03.148Z,19.11
2022-08-09T00:15:06.297Z,19.09
2022-08-09T00:18:12.185Z,19.00
2022-08-09T00:21:14.773Z,19.02
2022-08-09T00:24:19.844Z,19.12
2022-08-09T00:27:22.853Z,19.16
2022-08-09T00:30:29.872Z,19.18
2022-08-09T00:33:51.194Z,19.12
2022-08-09T00:36:54.377Z,19.10
2022-08-09T00:40:12.361Z,19.11
2022-08-09T00:44:11.446Z,19.01
2022-08-09T00:46:56.229Z,18.94
2022-08-09T00:50:00.769Z,18.94
2022-08-09T00:53:10.326Z,19.02
2022-08-09T00:56:17.471Z,18.95
2022-08-09T00:59:40.737Z,19.08
2022-08-09T01:02:47.976Z,19.02
2022-08-09T01:05:58.428Z,18.87
2022-08-09T01:09:14.789Z,18.87
2022-08-09T01:12:52.628Z,18.80
2022-08-09T01:15:56.800Z,18.74
2022-08-09T01:19:04.455Z,18.70
2022-08-09T01:22:28.589Z,18.71
2022-08-09T01:25:41.513Z,18.74
2022-08-09T01:28:45.985Z,18.75
2022-08-09T01:32:32.279Z,18.82
2022-08-09T01:35:28.990Z,19.05
2022-08-09T01:38:44.312Z,19.02
2022-08-09T01:41:53.631Z,18.97
2022-08-09T01:45:03.797Z,19.06
2022-08-09T01:48:09.716Z,19.03
2022-08-09T01:51:22.682Z,18.99
2022-08-09T01:54:32.735Z,19.02
2022-08-09T01:57:40.081Z,18.96
2022-08-09T02:00:50.562Z,18.99
2022-08-09T02:03:53.894Z,18.90
2022-08-09T02:07:17.770Z,18.94
2022-08-09T02:10:34.598Z,18.83
2022-08-09T02:13:40.679Z,18.78
2022-08-09T02:16:59.255Z,18.83
2022-08-09T02:20:08.070Z,18.86
2022-08-09T02:23:10.819Z,18.93
2022-08-09T02:26:24.914Z,18.89
2022-08-09T02:29:36.196Z,18.99
2022-08-09T02:32:42.003Z,18.71
2022-08-09T02:36:03.014Z,18.60
2022-08-09T02:39:14.384Z,18.56
2022-08-09T02:42:31.154Z,18.58
2022-08-09T02:45:44.490Z,18.61
2022-08-09T02:48:48.276Z,18.61
2022-08-09T02:51:58.524Z,18.58
2022-08-09T02:55:20.138Z,18.66
2022-08-09T02:58:35.569Z,18.65
2022-08-09T03:01:43.175Z,18.64
2022-08-09T03:05:05.733Z,18.56
2022-08-09T03:08:09.497Z,18.52
2022-08-09T03:12:04.775Z,18.44
2022-08-09T03:14:39.450Z,18.45
2022-08-09T03:17:44.085Z,18.61
2022-08-09T03:20:52.662Z,18.52
2022-08-09T03:24:04.677Z,18.37
2022-08-09T03:27:09.729Z,18.34
2022-08-09T03:30:30.158Z,18.23
2022-08-09T03:33:54.457Z,18.23
2022-08-09T03:37:00.114Z,18.15
2022-08-09T03:40:18.174Z,18.07
2022-08-09T03:43:23.569Z,18.00
2022-08-09T03:46:27.299Z,17.99
2022-08-09T03:49:36.801Z,17.98
2022-08-09T03:52:41.783Z,17.95
2022-08-09T03:55:45.148Z,17.93
2022-08-09T03:58:50.154Z,17.89
2022-08-09T04:01:56.624Z,17.90
2022-08-09T04:05:06.645Z,17.87
2022-08-09T04:08:20.009Z,17.72
2022-08-09T04:11:39.527Z,17.71
2022-08-09T04:15:00.857Z,17.59
2022-08-09T04:18:04.750Z,17.52
2022-08-09T04:21:07.957Z,17.51
2022-08-09T04:24:12.895Z,17.56
2022-08-09T04:27:16.136Z,17.69
2022-08-09T04:30:26.026Z,17.80
2022-08-09T04:33:34.028Z,17.86
2022-08-09T04:36:58.146Z,17.97
2022-08-09T04:40:00.526Z,18.01
2022-08-09T04:43:05.596Z,18.08
2022-08-09T04:46:19.364Z,18.22
2022-08-09T04:49:53.483Z,18.40
2022-08-09T04:52:57.572Z,18.53
2022-08-09T04:56:03.652Z,18.80
2022-08-09T04:59:15.551Z,18.95
2022-08-09T05:02:19.868Z,19.02
2022-08-09T05:05:32.518Z,19.13
2022-08-09T05:08:47.899Z,19.24
2022-08-09T05:11:52.963Z,19.52
2022-08-09T05:14:55.398Z,19.48
2022-08-09T05:18:42.642Z,19.52
2022-08-09T05:21:24.729Z,19.63
2022-08-09T05:24:35.688Z,20.04
2022-08-09T05:27:46.557Z,20.26
2022-08-09T05:30:51.627Z,20.30
2022-08-09T05:33:54.164Z,20.28
2022-08-09T05:36:59.144Z,20.52
2022-08-09T05:40:10.542Z,20.58
2022-08-09T05:43:13.247Z,20.69
2022-08-09T05:46:19.114Z,20.90
2022-08-09T05:50:24.283Z,21.16
2022-08-09T05:52:43.826Z,21.23
2022-08-09T05:55:46.676Z,21.33
2022-08-09T05:58:58.372Z,21.47
2022-08-09T06:02:01.999Z,21.15
2022-08-09T06:05:04.625Z,21.02
2022-08-09T06:08:11.194Z,21.39
2022-08-09T06:11:16.370Z,21.85
2022-08-09T06:14:22.909Z,22.45
2022-08-09T06:17:39.186Z,22.66
2022-08-09T06:20:43.486Z,22.58
2022-08-09T06:24:02.377Z,22.20
2022-08-09T06:27:06.043Z,22.30
2022-08-09T06:30:09.599Z,22.52
2022-08-09T06:33:40.051Z,22.11
2022-08-09T06:36:37.951Z,21.84
2022-08-09T06:39:58.077Z,21.90
2022-08-09T06:43:07.681Z,22.33
2022-08-09T06:46:40.348Z,22.19
2022-08-09T06:50:12.061Z,21.86
2022-08-09T06:53:02.969Z,22.07
2022-08-09T06:56:06.364Z,22.19
2022-08-09T07:00:49.913Z,22.53
2022-08-09T07:02:34.590Z,22.31
2022-08-09T07:05:58.069Z,22.18
2022-08-09T07:09:00.902Z,22.26
2022-08-09T07:12:07.320Z,22.73
2022-08-09T07:16:35.058Z,23.05
2022-08-09T07:18:41.606Z,22.95
2022-08-09T07:21:55.790Z,23.71
2022-08-09T07:25:01.951Z,25.15
2022-08-09T07:28:08.501Z,26.01
2022-08-09T07:31:11.245Z,28.71
2022-08-09T07:34:20.832Z,30.10
2022-08-09T07:37:25.657Z,32.08
2022-08-09T07:40:46.233Z,33.74
2022-08-09T07:43:56.259Z,34.63
2022-08-09T07:46:59.824Z,34.63
2022-08-09T07:50:07.787Z,33.97
2022-08-09T07:53:11.809Z,33.83
2022-08-09T07:56:27.228Z,34.83
2022-08-09T07:59:46.010Z,32.97
2022-08-09T08:02:52.454Z,32.75
2022-08-09T08:05:57.868Z,33.90
2022-08-09T08:09:05.342Z,33.25
2022-08-09T08:12:27.646Z,35.06
2022-08-09T08:15:35.485Z,33.15
2022-08-09T08:18:40.167Z,31.45
2022-08-09T08:21:52.569Z,27.91
2022-08-09T08:24:58.222Z,28.94
2022-08-09T08:28:00.138Z,28.52
2022-08-09T08:31:14.178Z,28.34
2022-08-09T08:34:20.828Z,27.23
2022-08-09T08:37:41.373Z,27.39
2022-08-09T08:40:50.297Z,27.20
2022-08-09T08:43:57.255Z,27.30
2022-08-09T08:47:12.954Z,27.36
2022-08-09T08:50:18.325Z,27.53
2022-08-09T08:53:21.990Z,27.40
2022-08-09T08:56:25.247Z,27.22
2022-08-09T08:59:46.925Z,27.40
2022-08-09T09:02:52.734Z,27.42
2022-08-09T09:05:58.211Z,27.32
2022-08-09T09:09:20.975Z,27.05
2022-08-09T09:12:37.977Z,27.23
2022-08-09T09:15:41.705Z,27.50
2022-08-09T09:19:10.790Z,27.35
2022-08-09T09:22:17.424Z,27.27
2022-08-09T09:26:01.911Z,27.26
2022-08-09T09:29:03.741Z,27.79
2022-08-09T09:32:34.808Z,27.18
2022-08-09T09:36:02.744Z,27.38
2022-08-09T09:39:42.649Z,27.50
2022-08-09T09:43:03.181Z,27.49
2022-08-09T09:50:13.312Z,27.97
2022-08-09T09:52:58.551Z,28.34
2022-08-09T09:56:04.502Z,28.01
2022-08-09T09:59:11.481Z,28.43
2022-08-09T10:02:18.888Z,28.91
2022-08-09T10:06:01.073Z,28.64
2022-08-09T10:08:54.500Z,28.91
2022-08-09T10:12:14.278Z,29.09
2022-08-09T10:16:09.209Z,28.64
2022-08-09T10:18:54.450Z,28.68
2022-08-09T10:21:57.104Z,28.93
2022-08-09T10:25:11.947Z,29.18
2022-08-09T10:28:17.192Z,29.16
2022-08-09T10:34:48.291Z,29.12
2022-08-09T10:37:52.400Z,29.36
2022-08-09T10:40:56.447Z,29.54
2022-08-09T10:44:01.813Z,28.56
2022-08-09T10:48:19.282Z,28.73
2022-08-09T10:51:10.997Z,29.07
2022-08-09T10:54:15.040Z,29.70
2022-08-09T10:57:17.419Z,29.93
2022-08-09T11:00:29.416Z,29.81
2022-08-09T11:03:51.457Z,29.03
2022-08-09T11:07:00.984Z,29.51
2022-08-09T11:10:03.883Z,30.32
2022-08-09T11:13:51.380Z,30.10
2022-08-09T11:16:41.041Z,29.84
2022-08-09T11:20:10.361Z,31.02
2022-08-09T11:23:15.107Z,30.72
2022-08-09T11:26:37.882Z,29.94
2022-08-09T11:30:05.703Z,29.76
2022-08-09T11:33:19.958Z,30.47
2022-08-09T11:36:30.351Z,29.53
2022-08-09T11:39:56.464Z,30.28
2022-08-09T11:43:00.414Z,29.95
2022-08-09T11:46:05.860Z,29.72
2022-08-09T11:49:09.764Z,29.76
2022-08-09T11:53:16.307Z,29.63
2022-08-09T11:55:53.889Z,29.41
2022-08-09T11:59:05.599Z,29.06
2022-08-09T12:02:18.153Z,29.29
2022-08-09T12:05:42.339Z,29.38
2022-08-09T12:08:50.926Z,29.49
2022-08-09T12:12:03.360Z,29.08
2022-08-09T12:15:50.388Z,29.34
2022-08-09T12:18:53.649Z,29.22
2022-08-09T12:22:01.274Z,29.15
2022-08-09T12:25:15.686Z,29.34
2022-08-09T12:29:11.254Z,29.17
2022-08-09T12:32:02.781Z,29.11
2022-08-09T12:35:12.308Z,28.89
2022-08-09T12:38:29.670Z,29.22
2022-08-09T12:41:40.605Z,29.39
2022-08-09T12:44:46.317Z,29.52
2022-08-09T12:47:51.406Z,29.55
2022-08-09T12:50:54.415Z,29.54
2022-08-09T12:53:57.512Z,29.44
2022-08-09T12:57:00.187Z,29.21
2022-08-09T13:00:35.808Z,29.07
2022-08-09T13:03:53.417Z,28.89
2022-08-09T13:07:10.738Z,28.96
2022-08-09T13:10:13.110Z,28.71
2022-08-09T13:13:16.384Z,28.29
2022-08-09T13:16:18.754Z,28.29
2022-08-09T13:20:06.993Z,28.26
2022-08-09T13:23:05.992Z,27.96
2022-08-09T13:26:44.076Z,27.64
2022-08-09T13:30:04.215Z,27.84
2022-08-09T13:33:23.910Z,27.89
2022-08-09T13:36:41.840Z,27.88
2022-08-09T13:41:54.073Z,27.91
2022-08-09T13:43:09.534Z,28.27
2022-08-09T13:46:42.761Z,28.31
2022-08-09T13:49:55.971Z,28.44
2022-08-09T13:52:59.169Z,28.58
2022-08-09T13:56:01.356Z,28.48
2022-08-09T13:59:05.264Z,28.80
2022-08-09T14:02:11.358Z,28.75
2022-08-09T14:05:56.744Z,28.95
2022-08-09T14:08:38.533Z,28.83
2022-08-09T14:11:47.900Z,28.77
2022-08-09T14:14:53.686Z,28.58
2022-08-09T14:18:16.493Z,28.59
2022-08-09T14:21:22.640Z,28.47
2022-08-09T14:24:31.962Z,28.51
2022-08-09T14:27:58.264Z,28.45
2022-08-09T14:31:01.060Z,28.47
2022-08-09T14:34:07.991Z,28.18
2022-08-09T14:37:11.076Z,28.36
2022-08-09T14:40:15.862Z,28.20
2022-08-09T14:43:18.896Z,28.52
2022-08-09T14:46:56.150Z,28.54
2022-08-09T14:50:01.320Z,28.42
2022-08-09T14:53:11.342Z,28.49
2022-08-09T14:56:14.702Z,28.30
2022-08-09T14:59:19.645Z,28.46
2022-08-09T15:02:25.419Z,28.43
2022-08-09T15:05:30.889Z,28.47
2022-08-09T15:08:36.092Z,28.20
2022-08-09T15:11:39.438Z,28.13
2022-08-09T15:14:48.856Z,28.51
2022-08-09T15:17:53.321Z,28.21
2022-08-09T15:22:00.397Z,28.15
2022-08-09T15:24:26.530Z,28.37
2022-08-09T15:27:29.752Z,28.20
2022-08-09T15:31:03.291Z,28.23
2022-08-09T15:34:32.769Z,28.36
2022-08-09T15:37:56.891Z,28.16
2022-08-09T15:41:09.559Z,27.87
2022-08-09T15:44:13.626Z,27.95
2022-08-09T15:47:22.667Z,28.07
2022-08-09T15:50:39.262Z,28.17
2022-08-09T15:54:05.792Z,28.09
2022-08-09T15:57:10.107Z,28.29
2022-08-09T16:00:21.880Z,28.10
2022-08-09T16:03:29.630Z,28.16
2022-08-09T16:06:44.547Z,28.30
2022-08-09T16:10:04.125Z,28.07
2022-08-09T16:13:18.767Z,27.82
2022-08-09T16:16:31.847Z,27.88
2022-08-09T16:19:36.476Z,27.84
2022-08-09T16:22:42.490Z,27.73
2022-08-09T16:25:51.956Z,27.70
2022-08-09T16:29:11.201Z,27.73
2022-08-09T16:32:33.277Z,27.63
2022-08-09T16:35:57.950Z,27.52
2022-08-09T16:39:03.334Z,27.45
2022-08-09T16:42:07.066Z,27.29
2022-08-09T16:45:12.676Z,27.31
2022-08-09T16:48:39.892Z,27.21
2022-08-09T16:51:36.762Z,27.19
2022-08-09T16:54:41.397Z,27.13
2022-08-09T16:58:08.154Z,26.97
2022-08-09T17:01:07.194Z,26.90
2022-08-09T17:04:10.200Z,26.84
2022-08-09T17:08:44.724Z,26.78
2022-08-09T17:10:54.062Z,26.68
2022-08-09T17:14:01.191Z,26.61
2022-08-09T17:17:23.724Z,26.55
2022-08-09T17:20:35.177Z,26.56
2022-08-09T17:24:28.371Z,26.58
2022-08-09T17:27:15.547Z,26.52
2022-08-09T17:30:19.762Z,26.48
2022-08-09T17:33:23.320Z,26.42
2022-08-09T17:36:28.435Z,26.40
2022-08-09T17:39:53.338Z,26.35
2022-08-09T17:42:59.873Z,26.26
2022-08-09T17:46:15.098Z,26.22
2022-08-09T17:49:18.906Z,26.19
2022-08-09T17:52:22.487Z,26.19
2022-08-09T17:55:47.402Z,26.12
2022-08-09T17:58:52.889Z,26.07
2022-08-09T18:02:06.238Z,26.13
2022-08-09T18:05:18.035Z,26.17
2022-08-09T18:08:27.446Z,26.13
2022-08-09T18:12:05.802Z,26.01
2022-08-09T18:14:57.578Z,26.10
2022-08-09T18:18:07.879Z,26.06
2022-08-09T18:21:22.924Z,26.04
2022-08-09T18:24:28.461Z,25.94
2022-08-09T18:28:03.195Z,25.92
2022-08-09T18:30:55.552Z,25.85
2022-08-09T18:33:58.404Z,25.76
2022-08-09T18:37:03.000Z,25.70
2022-08-09T18:40:06.605Z,25.67
2022-08-09T18:43:10.170Z,25.69
2022-08-09T18:46:50.382Z,25.66
2022-08-09T18:49:43.513Z,25.59
2022-08-09T18:52:50.817Z,25.82
2022-08-09T18:55:57.325Z,25.94
2022-08-09T18:59:10.867Z,25.83
2022-08-09T19:02:17.156Z,25.73
2022-08-09T19:05:48.966Z,25.73
2022-08-09T19:08:55.258Z,25.61
2022-08-09T19:12:05.936Z,25.48
2022-08-09T19:15:08.709Z,25.53
2022-08-09T19:18:33.778Z,25.45
2022-08-09T19:21:51.965Z,25.40
2022-08-09T19:25:41.205Z,25.16
2022-08-09T19:28:38.708Z,25.10
2022-08-09T19:31:49.511Z,25.08
2022-08-09T19:34:54.349Z,25.03
2022-08-09T19:38:00.039Z,24.97
2022-08-09T19:41:02.352Z,24.83
2022-08-09T19:44:13.969Z,24.90
2022-08-09T19:47:23.558Z,24.74
2022-08-09T19:50:51.284Z,24.73
2022-08-09T19:53:52.765Z,24.55
2022-08-09T19:57:05.091Z,24.50
2022-08-09T20:00:11.548Z,24.30
2022-08-09T20:04:18.360Z,24.26
2022-08-09T20:06:38.917Z,24.20
2022-08-09T20:09:45.906Z,24.12
2022-08-09T20:12:48.199Z,24.27
2022-08-09T20:16:38.495Z,24.20
2022-08-09T20:19:46.454Z,24.07
2022-08-09T20:22:42.924Z,23.87
2022-08-09T20:25:51.272Z,23.81
2022-08-09T20:28:54.652Z,23.78
2022-08-09T20:32:29.689Z,23.81
2022-08-09T20:35:21.891Z,23.86
2022-08-09T20:38:30.886Z,23.70
2022-08-09T20:41:49.137Z,23.68
2022-08-09T20:45:04.526Z,23.68
2022-08-09T20:48:20.908Z,23.73
2022-08-09T20:51:41.066Z,23.66
2022-08-09T20:54:52.797Z,23.60
2022-08-09T20:58:07.803Z,23.64
2022-08-09T21:01:34.463Z,23.59
2022-08-09T21:05:57.316Z,23.67
2022-08-09T21:08:05.442Z,23.69
2022-08-09T21:14:31.559Z,23.72
2022-08-09T21:18:22.454Z,23.70
2022-08-09T21:20:58.860Z,23.55
2022-08-09T21:24:05.695Z,23.59
2022-08-09T21:27:50.221Z,23.57
2022-08-09T21:30:30.270Z,23.59
2022-08-09T21:33:36.008Z,23.44
2022-08-09T21:36:38.575Z,23.32
2022-08-09T21:39:57.853Z,23.28
2022-08-09T21:43:06.115Z,23.22
2022-08-09T21:46:08.460Z,23.19
2022-08-09T21:49:16.195Z,23.26
2022-08-09T21:52:25.581Z,23.15
2022-08-09T21:55:30.720Z,23.17
2022-08-09T21:58:36.582Z,23.13
2022-08-09T22:02:00.735Z,23.05
2022-08-09T22:05:17.127Z,22.95
2022-08-09T22:08:28.355Z,22.92
2022-08-09T22:12:06.494Z,22.95
2022-08-09T22:14:55.098Z,22.90
2022-08-09T22:17:59.541Z,22.88
2022-08-09T22:21:03.063Z,22.76
2022-08-09T22:24:17.075Z,22.64
2022-08-09T22:27:19.914Z,22.57
2022-08-09T22:30:33.282Z,22.52
2022-08-09T22:33:55.146Z,22.45
2022-08-09T22:36:59.527Z,22.54
2022-08-09T22:40:05.417Z,22.49
2022-08-09T22:43:16.113Z,22.36
2022-08-09T22:48:13.313Z,22.33
2022-08-09T22:49:51.923Z,22.26
2022-08-09T22:52:59.556Z,22.24
2022-08-09T22:56:33.387Z,22.15
2022-08-09T22:59:57.246Z,22.06
2022-08-09T23:02:54.737Z,22.05
2022-08-09T23:06:00.363Z,22.06
2022-08-09T23:09:03.050Z,22.09
2022-08-09T23:12:06.722Z,21.99
2022-08-09T23:15:09.621Z,21.98
2022-08-09T23:18:13.054Z,21.92
2022-08-09T23:21:24.500Z,21.84
2022-08-09T23:24:28.095Z,21.84
2022-08-09T23:27:30.371Z,21.83
2022-08-09T23:30:33.668Z,21.74
2022-08-09T23:33:36.848Z,21.74
2022-08-09T23:36:42.845Z,21.63
2022-08-09T23:39:45.100Z,21.59
2022-08-09T23:42:47.851Z,21.54
2022-08-09T23:45:50.203Z,21.55
2022-08-09T23:48:52.836Z,21.54
2022-08-09T23:51:58.286Z,21.47
2022-08-09T23:55:00.983Z,21.43
2022-08-09T23:58:09.433Z,21.38
